Alton, Utah
Current Conditions -  °F | °C
As of 4:53 PM on Thursday 27 Nov 2014 (Local Time) from KBCE Reporting Station
Clear Clear  
Wind Chill: 45°   Ceiling: Unl
Heat Index: 45°   Visibility: 10mi
Dew Point: 16°   Wind: 0mph
Humidity: 31%   Direction: NA
Pressure: 30.39"   Gusts: NA
Location:  37.44°N, 112.48°W
Report Text: KBCE 272353Z AUTO 00000KT 10SM CLR 07/M09 A3039 RMK AO2 SLP262 T00721089 10122 20067 55004
Loading
Personal Weather Stations






























Interactive Weather Map New forecast layout! Learn more

10-Day Weather Forecast

Advertisements
Track Severe Weather on mobile